Time;durP1;ratioP1;P1;durP2;ratioP2;P2;SDS_P1;SDS_P2;PMS_P1;PMS_P2;Temp;Humidity;BMP_temperature;BMP_pressure;BME280_temperature;BME280_humidity;BME280_pressure;Samples;Min_cycle;Max_cycle;Signal;HPM_P1;HPM_P2
2022/09/08 00:01:47;;;;;;;8.90;3.00;;;19.00;99.90;;;;;;5030183;28;20018;-78
2022/09/08 00:04:14;;;;;;;10.18;3.75;;;19.00;99.90;;;;;;5030739;28;20021;-78
2022/09/08 00:06:39;;;;;;;8.75;3.53;;;19.00;99.90;;;;;;5028996;28;20481;-78
2022/09/08 00:09:05;;;;;;;10.63;3.45;;;19.00;99.90;;;;;;5030158;28;20045;-77
2022/09/08 00:11:32;;;;;;;10.77;3.70;;;19.00;99.90;;;;;;5030619;28;20064;-78
2022/09/08 00:14:03;;;;;;;9.82;3.65;;;19.00;99.90;;;;;;5030639;28;20028;-78
2022/09/08 00:16:29;;;;;;;10.68;4.20;;;18.90;99.90;;;;;;5030690;28;20381;-78
2022/09/08 00:18:54;;;;;;;9.43;3.90;;;18.90;99.90;;;;;;5028751;28;20028;-78
2022/09/08 00:21:23;;;;;;;12.50;4.32;;;19.00;99.90;;;;;;5062330;28;20047;-78
2022/09/08 00:23:49;;;;;;;11.73;4.05;;;18.90;99.90;;;;;;5030083;28;20025;-78
2022/09/08 00:26:15;;;;;;;13.27;4.00;;;18.90;99.90;;;;;;5030164;28;20028;-78
2022/09/08 00:28:41;;;;;;;11.95;3.63;;;18.90;99.90;;;;;;5029731;28;20040;-78
2022/09/08 00:31:07;;;;;;;10.20;3.72;;;18.90;99.90;;;;;;5030022;28;20037;-78
2022/09/08 00:33:33;;;;;;;9.45;3.83;;;18.90;99.90;;;;;;5030365;28;20025;-78
2022/09/08 00:36:03;;;;;;;10.50;4.50;;;18.90;99.90;;;;;;5030157;28;20036;-78
2022/09/08 00:38:30;;;;;;;9.73;4.65;;;18.90;99.90;;;;;;5029746;28;20477;-78
2022/09/08 00:40:56;;;;;;;13.50;4.60;;;18.90;99.90;;;;;;5029906;28;20025;-78
2022/09/08 00:43:36;;;;;;;14.10;4.45;;;18.90;99.90;;;;;;5028742;28;20419;-78
2022/09/08 00:46:27;;;;;;;13.85;5.00;;;18.90;99.90;;;;;;5031605;28;20147;-77
2022/09/08 00:49:22;;;;;;;13.90;4.80;;;18.90;99.90;;;;;;5021289;28;20152;-78
2022/09/08 00:51:51;;;;;;;14.20;4.90;;;18.80;99.90;;;;;;5030602;28;20060;-78
2022/09/08 00:54:17;;;;;;;9.88;5.30;;;18.80;99.90;;;;;;5042946;28;20032;-78
2022/09/08 00:56:45;;;;;;;12.43;5.05;;;18.80;99.90;;;;;;5030317;28;20018;-78
2022/09/08 00:59:12;;;;;;;14.50;5.22;;;18.80;99.90;;;;;;5029921;28;20088;-78
2022/09/08 01:01:38;;;;;;;15.20;5.40;;;18.80;99.90;;;;;;5027992;28;20397;-78
2022/09/08 01:04:05;;;;;;;11.13;4.85;;;18.80;99.90;;;;;;5039650;28;20032;-78
2022/09/08 01:12:45;;;;;;;18.02;6.45;;;18.70;99.90;;;;;;5023965;28;20036;-78
2022/09/08 01:15:18;;;;;;;17.25;6.57;;;18.70;99.90;;;;;;5029370;28;20121;-78
2022/09/08 01:17:45;;;;;;;10.98;5.50;;;18.70;99.90;;;;;;5029759;28;20021;-78
2022/09/08 01:20:11;;;;;;;17.20;6.18;;;18.70;99.90;;;;;;5031373;28;20026;-78
2022/09/08 01:22:36;;;;;;;15.60;6.07;;;18.60;99.90;;;;;;5036205;28;20013;-78
2022/09/08 01:25:27;;;;;;;15.15;5.55;;;18.60;99.90;;;;;;5029788;28;20389;-78
2022/09/08 01:28:06;;;;;;;12.27;5.40;;;18.60;99.90;;;;;;5030350;28;20028;-78
2022/09/08 01:30:34;;;;;;;16.17;5.78;;;18.60;99.90;;;;;;5027829;28;20033;-78
2022/09/08 01:33:04;;;;;;;12.73;5.60;;;18.60;99.90;;;;;;5029418;28;20045;-77
2022/09/08 01:35:34;;;;;;;11.88;5.40;;;18.60;99.90;;;;;;5029285;28;20022;-77
2022/09/08 01:37:59;;;;;;;17.85;5.95;;;18.60;99.90;;;;;;5030078;28;20022;-78
2022/09/08 01:40:25;;;;;;;11.32;5.32;;;18.60;99.90;;;;;;5029073;28;20036;-77
2022/09/08 01:42:51;;;;;;;13.93;5.80;;;18.60;99.90;;;;;;5029066;28;20025;-78
2022/09/08 01:45:17;;;;;;;17.48;6.32;;;18.60;99.90;;;;;;5029153;28;20100;-78
2022/09/08 01:47:42;;;;;;;16.00;5.85;;;18.60;99.90;;;;;;5029041;28;20029;-78
2022/09/08 01:50:09;;;;;;;15.75;5.35;;;18.60;99.90;;;;;;5029401;28;20061;-78
2022/09/08 01:52:35;;;;;;;12.23;5.43;;;18.60;99.90;;;;;;5029029;28;20113;-77
2022/09/08 01:55:01;;;;;;;17.77;5.97;;;18.60;99.90;;;;;;5036856;28;20107;-77
2022/09/08 01:57:27;;;;;;;15.80;5.82;;;18.60;99.90;;;;;;5035917;28;20543;-77
2022/09/08 01:59:52;;;;;;;14.63;5.85;;;18.70;99.90;;;;;;5030841;28;20526;-77
2022/09/08 02:02:18;;;;;;;13.55;5.20;;;18.70;99.90;;;;;;5032626;28;20078;-77
2022/09/08 02:04:44;;;;;;;13.57;5.10;;;18.70;99.90;;;;;;5032212;28;20017;-77
2022/09/08 02:07:10;;;;;;;13.23;5.70;;;18.70;99.90;;;;;;5032935;28;20360;-77
2022/09/08 02:09:36;;;;;;;14.38;5.60;;;18.70;99.90;;;;;;5031969;28;20596;-77
2022/09/08 02:12:03;;;;;;;15.07;5.32;;;18.70;99.90;;;;;;5032471;28;20055;-77
2022/09/08 02:14:29;;;;;;;16.15;5.38;;;18.70;99.90;;;;;;5032946;28;20049;-77
2022/09/08 02:16:54;;;;;;;18.23;5.70;;;18.80;99.90;;;;;;5032203;28;20414;-77
2022/09/08 02:19:20;;;;;;;12.75;4.88;;;18.80;99.90;;;;;;5031304;28;20017;-77
2022/09/08 02:21:46;;;;;;;14.73;4.53;;;18.80;99.90;;;;;;5022848;28;20052;-77
2022/09/08 02:24:11;;;;;;;11.80;4.10;;;18.80;99.90;;;;;;5032376;28;20033;-77
2022/09/08 02:26:38;;;;;;;10.75;4.35;;;18.70;99.90;;;;;;5031967;28;20508;-77
2022/09/08 02:29:08;;;;;;;11.18;3.92;;;18.70;99.90;;;;;;5032629;28;20108;-78
2022/09/08 02:31:34;;;;;;;9.20;3.60;;;18.70;99.90;;;;;;5022833;28;20394;-77
2022/09/08 02:33:59;;;;;;;12.20;4.00;;;18.80;99.90;;;;;;5031830;28;20028;-77
2022/09/08 02:36:25;;;;;;;11.45;3.95;;;18.70;99.90;;;;;;5032183;28;20021;-77
2022/09/08 02:38:55;;;;;;;10.95;3.13;;;18.70;99.90;;;;;;5031938;28;20037;-77
2022/09/08 02:41:22;;;;;;;12.18;3.85;;;18.70;99.90;;;;;;5032346;28;20374;-77
2022/09/08 02:43:48;;;;;;;18.63;3.58;;;18.70;99.90;;;;;;5031654;28;20087;-77
2022/09/08 02:46:15;;;;;;;9.38;3.20;;;18.70;99.90;;;;;;5031942;28;20061;-77
2022/09/08 02:48:40;;;;;;;11.20;3.53;;;18.70;99.90;;;;;;5031874;28;20627;-77
2022/09/08 02:51:09;;;;;;;11.57;3.40;;;18.70;99.90;;;;;;5031693;28;20018;-77
2022/09/08 02:53:36;;;;;;;8.60;3.38;;;18.70;99.90;;;;;;5031991;28;20478;-77
2022/09/08 02:56:02;;;;;;;7.75;3.30;;;18.60;99.90;;;;;;5045708;28;20083;-78
2022/09/08 02:58:28;;;;;;;10.30;3.50;;;18.60;99.90;;;;;;5031998;28;20033;-77
2022/09/08 03:00:54;;;;;;;13.93;3.53;;;18.60;99.90;;;;;;5030252;28;20440;-77
2022/09/08 03:03:22;;;;;;;8.65;3.22;;;18.60;99.90;;;;;;5029874;28;20049;-78
2022/09/08 03:05:48;;;;;;;12.25;3.00;;;18.60;99.90;;;;;;5031648;28;20041;-78
2022/09/08 03:08:14;;;;;;;10.75;2.88;;;18.60;99.90;;;;;;5031073;28;20388;-78
2022/09/08 03:10:41;;;;;;;9.70;3.00;;;18.60;99.90;;;;;;5031100;28;20061;-78
2022/09/08 03:13:07;;;;;;;10.05;3.10;;;18.60;99.90;;;;;;5029880;28;20038;-77
2022/09/08 03:15:34;;;;;;;9.90;2.90;;;18.60;99.90;;;;;;5031400;28;20021;-78
2022/09/08 03:18:04;;;;;;;12.20;3.25;;;18.60;99.90;;;;;;5031139;28;20021;-77
2022/09/08 03:20:31;;;;;;;10.23;3.05;;;18.50;99.90;;;;;;5032218;28;20047;-77
2022/09/08 03:22:57;;;;;;;13.55;3.33;;;18.50;99.90;;;;;;5031419;28;20078;-77
2022/09/08 03:25:23;;;;;;;8.38;2.95;;;18.40;99.90;;;;;;5029976;28;20032;-77
2022/09/08 03:27:49;;;;;;;10.63;3.10;;;18.40;99.90;;;;;;5031702;28;20186;-77
2022/09/08 03:30:16;;;;;;;12.77;3.40;;;18.30;99.90;;;;;;5030607;28;20112;-77
2022/09/08 03:32:42;;;;;;;12.05;3.67;;;18.30;99.90;;;;;;5031222;28;20517;-77
2022/09/08 03:35:09;;;;;;;9.70;3.10;;;18.20;99.90;;;;;;5030734;28;20025;-77
2022/09/08 03:37:36;;;;;;;11.30;3.60;;;18.30;99.90;;;;;;5030984;28;20045;-77
2022/09/08 03:40:04;;;;;;;14.43;3.20;;;18.20;99.90;;;;;;5030763;28;20084;-77
2022/09/08 03:42:38;;;;;;;7.32;3.38;;;18.20;99.90;;;;;;5030766;28;20073;-77
2022/09/08 03:45:07;;;;;;;13.48;3.72;;;18.20;99.90;;;;;;5030868;28;20417;-77
2022/09/08 03:47:33;;;;;;;13.30;4.00;;;18.20;99.90;;;;;;5030606;28;20038;-77
2022/09/08 03:49:59;;;;;;;10.00;3.55;;;18.20;99.90;;;;;;5030459;28;20580;-77
2022/09/08 03:52:25;;;;;;;10.77;4.18;;;18.20;99.90;;;;;;5030521;28;20101;-77
2022/09/08 03:54:51;;;;;;;12.18;3.60;;;18.20;99.90;;;;;;5037119;28;20482;-77
2022/09/08 03:57:22;;;;;;;14.65;4.20;;;18.20;99.90;;;;;;5038576;28;20040;-78
2022/09/08 03:59:49;;;;;;;11.15;4.65;;;18.10;99.90;;;;;;5030169;28;20076;-77
2022/09/08 04:02:16;;;;;;;15.68;4.90;;;18.10;99.90;;;;;;5030416;28;20025;-77
2022/09/08 04:04:42;;;;;;;13.60;4.70;;;18.10;99.90;;;;;;5031032;28;20211;-77
2022/09/08 04:07:09;;;;;;;12.30;4.35;;;18.10;99.90;;;;;;5030267;28;20537;-76
2022/09/08 04:09:35;;;;;;;12.88;4.20;;;18.00;99.90;;;;;;5028918;28;20056;-77
2022/09/08 04:12:01;;;;;;;12.38;4.53;;;18.00;99.90;;;;;;5030132;28;20041;-77
2022/09/08 04:14:27;;;;;;;18.30;5.15;;;18.00;99.90;;;;;;5030302;28;20037;-77
2022/09/08 04:16:52;;;;;;;12.18;5.30;;;18.00;99.90;;;;;;5030011;28;20026;-77
2022/09/08 04:19:18;;;;;;;11.68;5.20;;;18.00;99.90;;;;;;5030083;28;20659;-77
2022/09/08 04:21:43;;;;;;;13.05;5.55;;;18.00;99.90;;;;;;5029461;28;21430;-77
2022/09/08 04:24:09;;;;;;;13.07;5.63;;;17.90;99.90;;;;;;5030248;28;20305;-77
2022/09/08 04:26:34;;;;;;;14.15;6.07;;;18.00;99.90;;;;;;5048257;28;20029;-77
2022/09/08 04:29:01;;;;;;;9.98;5.45;;;17.90;99.90;;;;;;5030069;28;20029;-77
2022/09/08 04:31:27;;;;;;;14.20;5.93;;;18.00;99.90;;;;;;5030386;28;20443;-77
2022/09/08 04:33:52;;;;;;;15.27;6.13;;;18.00;99.90;;;;;;5029801;28;20056;-77
2022/09/08 04:36:20;;;;;;;18.50;7.03;;;17.90;99.90;;;;;;5030063;28;20482;-77
2022/09/08 04:38:46;;;;;;;13.63;6.50;;;17.90;99.90;;;;;;5029733;28;20087;-77
2022/09/08 04:41:16;;;;;;;14.55;6.03;;;18.00;99.90;;;;;;5030244;28;20033;-77
2022/09/08 04:43:42;;;;;;;15.68;6.63;;;18.00;99.90;;;;;;5041206;28;20040;-77
2022/09/08 04:46:13;;;;;;;17.17;7.05;;;18.00;99.90;;;;;;5040193;28;20112;-77
2022/09/08 04:48:40;;;;;;;14.60;6.55;;;17.90;99.90;;;;;;5028871;28;20662;-77
2022/09/08 04:51:06;;;;;;;14.98;6.38;;;17.90;99.90;;;;;;5041034;28;20375;-77
2022/09/08 04:53:35;;;;;;;13.73;5.50;;;18.00;99.90;;;;;;5048337;28;20028;-76
2022/09/08 04:56:01;;;;;;;13.77;5.80;;;17.90;99.90;;;;;;5043823;28;20021;-77
2022/09/08 04:58:29;;;;;;;16.65;6.10;;;17.90;99.90;;;;;;5043244;28;20057;-76
2022/09/08 05:00:54;;;;;;;13.20;5.30;;;17.90;99.90;;;;;;5042892;28;20101;-76
2022/09/08 05:03:20;;;;;;;8.82;4.78;;;17.80;99.90;;;;;;5045290;28;20033;-76
2022/09/08 05:05:45;;;;;;;12.15;4.82;;;17.80;99.90;;;;;;5046064;28;20485;-76
2022/09/08 05:08:11;;;;;;;12.68;5.00;;;17.80;99.90;;;;;;5040031;28;20044;-76
2022/09/08 05:10:37;;;;;;;9.75;4.43;;;17.70;99.90;;;;;;5032834;28;20068;-76
2022/09/08 05:13:02;;;;;;;10.65;4.30;;;17.70;99.90;;;;;;5034248;28;20036;-77
2022/09/08 05:15:29;;;;;;;12.82;4.57;;;17.70;99.90;;;;;;5033905;28;20036;-76
2022/09/08 05:17:55;;;;;;;9.20;4.18;;;17.70;99.90;;;;;;5034036;28;20128;-76
2022/09/08 05:20:21;;;;;;;12.73;5.07;;;17.60;99.90;;;;;;5041955;28;20079;-77
2022/09/08 05:22:46;;;;;;;9.18;5.00;;;17.60;99.90;;;;;;5031927;28;20021;-76
2022/09/08 05:25:12;;;;;;;14.52;6.13;;;17.60;99.90;;;;;;5030784;28;20026;-75
2022/09/08 05:27:38;;;;;;;15.60;6.75;;;17.50;99.90;;;;;;5035957;28;20027;-76
2022/09/08 05:30:04;;;;;;;12.02;6.82;;;17.50;99.90;;;;;;5030870;28;20516;-77
2022/09/08 05:32:29;;;;;;;14.02;6.97;;;17.60;99.90;;;;;;5028888;28;20025;-76
2022/09/08 05:34:55;;;;;;;13.00;7.22;;;17.60;99.90;;;;;;5034648;28;20022;-76
2022/09/08 05:37:21;;;;;;;11.80;7.30;;;17.60;99.90;;;;;;5035884;28;20490;-76
2022/09/08 05:39:46;;;;;;;14.88;8.32;;;17.60;99.90;;;;;;5041337;28;20389;-77
2022/09/08 05:42:13;;;;;;;14.55;7.85;;;17.60;99.90;;;;;;5043582;28;20025;-77
2022/09/08 05:44:38;;;;;;;16.65;8.40;;;17.60;99.90;;;;;;5038772;28;20028;-77
2022/09/08 05:47:04;;;;;;;14.23;8.82;;;17.60;99.90;;;;;;5041319;28;20053;-75
2022/09/08 05:49:31;;;;;;;14.18;8.20;;;17.60;99.90;;;;;;5036108;28;20392;-78
2022/09/08 05:51:58;;;;;;;16.52;8.60;;;17.60;99.90;;;;;;5033706;28;20068;-78
2022/09/08 05:54:24;;;;;;;15.55;8.35;;;17.50;99.90;;;;;;5033693;28;20057;-78
2022/09/08 05:56:50;;;;;;;14.52;8.10;;;17.50;99.90;;;;;;5033642;28;20018;-78
2022/09/08 05:59:16;;;;;;;13.00;7.32;;;17.60;99.90;;;;;;5033732;28;20021;-78
2022/09/08 06:01:42;;;;;;;11.80;6.55;;;17.60;99.90;;;;;;5033512;28;20025;-78
2022/09/08 06:04:08;;;;;;;13.50;6.78;;;17.60;99.90;;;;;;5033507;28;20489;-78
2022/09/08 06:06:34;;;;;;;11.23;6.32;;;17.60;99.90;;;;;;5033489;28;20029;-78
2022/09/08 06:09:01;;;;;;;18.70;7.30;;;17.60;99.90;;;;;;5033474;28;20017;-78
2022/09/08 06:11:28;;;;;;;14.02;7.60;;;17.60;99.90;;;;;;5033302;28;20087;-78
2022/09/08 06:13:55;;;;;;;14.30;7.72;;;17.60;99.90;;;;;;5033199;28;20022;-78
2022/09/08 06:16:21;;;;;;;13.50;7.85;;;17.60;99.90;;;;;;5033427;28;20042;-78
2022/09/08 06:18:47;;;;;;;13.32;8.15;;;17.60;99.90;;;;;;5032557;28;20109;-77
2022/09/08 06:21:19;;;;;;;14.55;8.18;;;17.70;99.90;;;;;;5032616;28;20108;-77
2022/09/08 06:23:51;;;;;;;13.57;8.50;;;17.60;99.90;;;;;;5036543;28;20057;-77
2022/09/08 06:26:37;;;;;;;14.40;9.40;;;17.60;99.90;;;;;;5033440;28;20025;-77
2022/09/08 06:29:11;;;;;;;12.98;8.95;;;17.60;99.90;;;;;;5033122;28;20017;-78
2022/09/08 06:31:43;;;;;;;17.27;11.65;;;17.70;99.90;;;;;;5038022;28;20029;-78
2022/09/08 06:34:30;;;;;;;17.30;12.07;;;17.70;99.90;;;;;;5043541;28;20021;-78
2022/09/08 06:37:03;;;;;;;22.17;13.43;;;17.70;99.90;;;;;;5027569;28;20025;-78
2022/09/08 06:39:54;;;;;;;25.55;15.02;;;17.70;99.90;;;;;;5034204;28;20581;-78
2022/09/08 06:42:29;;;;;;;24.00;15.68;;;17.70;99.90;;;;;;5043318;28;20500;-78
2022/09/08 06:44:59;;;;;;;24.92;16.52;;;17.70;99.90;;;;;;5033272;28;20018;-78
2022/09/08 06:47:31;;;;;;;25.70;16.35;;;17.70;99.90;;;;;;5040144;28;20045;-78
2022/09/08 06:49:57;;;;;;;28.23;16.75;;;17.80;99.90;;;;;;5035430;28;20028;-78
2022/09/08 06:52:28;;;;;;;23.35;16.02;;;17.80;99.90;;;;;;5032828;28;20093;-78
2022/09/08 06:55:10;;;;;;;26.33;16.65;;;17.80;99.90;;;;;;5032911;28;20026;-78
2022/09/08 06:57:42;;;;;;;24.88;16.65;;;17.90;99.90;;;;;;5032838;28;20032;-78
2022/09/08 07:00:21;;;;;;;25.13;16.85;;;17.90;99.90;;;;;;5032747;28;20014;-78
2022/09/08 07:03:10;;;;;;;29.08;17.52;;;17.90;99.90;;;;;;5033060;28;20082;-78
2022/09/08 07:06:13;;;;;;;30.27;17.90;;;17.90;99.90;;;;;;5031485;28;20473;-78
2022/09/08 07:09:02;;;;;;;29.92;18.50;;;17.90;99.90;;;;;;5032092;28;20022;-78
2022/09/08 07:12:00;;;;;;;29.80;18.25;;;17.90;99.90;;;;;;5018225;28;20041;-78
2022/09/08 07:14:49;;;;;;;26.33;19.00;;;17.90;99.90;;;;;;5027387;28;20038;-78
2022/09/08 07:17:25;;;;;;;25.88;18.70;;;17.90;99.90;;;;;;5021209;28;20043;-78
2022/09/08 07:19:53;;;;;;;28.48;18.85;;;17.90;99.90;;;;;;5024287;28;20393;-78
2022/09/08 07:22:46;;;;;;;26.30;19.20;;;17.90;99.90;;;;;;5029659;28;20083;-78
2022/09/08 07:25:27;;;;;;;31.02;20.25;;;17.90;99.90;;;;;;5022606;28;20422;-78
2022/09/08 07:28:01;;;;;;;30.98;20.25;;;17.90;99.90;;;;;;5029222;28;20503;-78
2022/09/08 07:30:27;;;;;;;31.27;20.23;;;17.90;99.90;;;;;;5022291;28;20091;-78
2022/09/08 07:33:02;;;;;;;28.35;18.73;;;17.90;99.90;;;;;;5026564;28;20033;-78
2022/09/08 07:36:07;;;;;;;30.63;17.98;;;17.90;99.90;;;;;;5022664;28;20042;-78
2022/09/08 07:38:45;;;;;;;28.25;17.67;;;17.90;99.90;;;;;;5018063;28;20039;-78
2022/09/08 07:41:15;;;;;;;27.73;18.75;;;17.90;99.90;;;;;;5022229;28;20033;-78
2022/09/08 07:43:41;;;;;;;30.55;18.42;;;18.00;99.90;;;;;;5031044;28;20106;-78
2022/09/08 07:46:24;;;;;;;28.90;19.00;;;18.00;99.90;;;;;;5031651;28;20061;-78
2022/09/08 07:49:08;;;;;;;30.45;20.42;;;18.00;99.90;;;;;;5032617;28;20663;-78
2022/09/08 07:51:42;;;;;;;28.25;20.15;;;18.10;99.90;;;;;;5035314;28;20030;-78
2022/09/08 07:54:18;;;;;;;28.95;20.80;;;18.10;99.90;;;;;;5031879;28;20075;-78
2022/09/08 07:57:00;;;;;;;32.95;20.92;;;18.20;99.90;;;;;;5031055;28;20087;-78
2022/09/08 07:59:42;;;;;;;30.00;20.10;;;18.30;99.90;;;;;;5031864;28;20083;-78
2022/09/08 08:02:32;;;;;;;29.52;19.52;;;18.30;99.90;;;;;;5031477;28;20051;-78
2022/09/08 08:05:07;;;;;;;27.27;18.23;;;18.30;99.90;;;;;;5031678;28;20037;-78
2022/09/08 08:07:39;;;;;;;;;;;18.30;99.90;;;;;;5032123;28;20030;-78
2022/09/08 08:10:17;;;;;;;22.67;15.43;;;18.30;99.90;;;;;;5031825;28;19917;-78
2022/09/08 08:13:10;;;;;;;19.95;14.80;;;18.30;99.90;;;;;;5030758;28;20040;-78
2022/09/08 08:15:49;;;;;;;19.10;13.50;;;18.40;99.90;;;;;;5031242;28;20511;-77
2022/09/08 08:18:48;;;;;;;18.77;12.63;;;18.50;99.90;;;;;;5031362;28;20447;-78
2022/09/08 08:21:25;;;;;;;15.50;11.77;;;18.60;99.90;;;;;;5032554;28;20033;-78
2022/09/08 08:24:11;;;;;;;17.35;11.23;;;18.70;99.90;;;;;;5030997;28;21111;-78
2022/09/08 08:26:54;;;;;;;16.25;10.40;;;18.90;99.90;;;;;;5018172;28;20087;-77
2022/09/08 08:29:44;;;;;;;13.95;8.82;;;19.00;99.90;;;;;;5030688;28;20044;-77
2022/09/08 08:32:21;;;;;;;10.85;7.32;;;19.20;99.90;;;;;;5030727;28;20104;-78
2022/09/08 08:34:57;;;;;;;13.38;7.45;;;19.30;99.90;;;;;;5030923;28;20022;-78
2022/09/08 08:37:28;;;;;;;11.27;6.93;;;19.30;99.90;;;;;;5031136;28;20024;-78
2022/09/08 08:39:55;;;;;;;9.73;6.43;;;19.40;99.90;;;;;;5029756;28;20140;-77
2022/09/08 08:42:39;;;;;;;9.93;6.63;;;19.40;99.90;;;;;;5030745;28;20026;-78
2022/09/08 08:45:12;;;;;;;12.38;6.90;;;19.30;99.90;;;;;;5031051;28;20100;-78
2022/09/08 08:47:56;;;;;;;10.60;5.75;;;19.20;99.90;;;;;;5029783;28;20203;-77
2022/09/08 08:50:38;;;;;;;12.82;6.90;;;19.10;99.90;;;;;;5030941;28;20030;-77
2022/09/08 08:53:29;;;;;;;9.18;6.68;;;19.10;99.90;;;;;;5030592;28;20044;-78
2022/09/08 08:55:55;;;;;;;10.43;6.72;;;19.10;99.90;;;;;;5030818;28;20047;-77
2022/09/08 08:58:49;;;;;;;11.40;6.18;;;19.10;99.90;;;;;;5030520;28;20033;-77
2022/09/08 09:01:38;;;;;;;10.45;5.15;;;19.20;99.90;;;;;;5030688;28;20121;-77
2022/09/08 09:04:06;;;;;;;10.07;4.57;;;19.10;99.90;;;;;;5030304;28;20100;-77
2022/09/08 09:06:50;;;;;;;8.32;4.03;;;19.20;99.90;;;;;;5030614;28;20022;-77
2022/09/08 09:09:39;;;;;;;9.48;4.20;;;19.30;99.90;;;;;;5032438;28;20021;-77
2022/09/08 09:12:17;;;;;;;8.00;3.47;;;19.50;99.90;;;;;;5033907;28;20167;-77
2022/09/08 09:14:45;;;;;;;9.30;3.15;;;19.70;99.90;;;;;;5025173;28;20329;-78
2022/09/08 09:17:29;;;;;;;6.82;2.00;;;19.80;99.90;;;;;;5033674;28;20029;-77
2022/09/08 09:20:20;;;;;;;6.55;1.98;;;20.10;99.90;;;;;;5026571;28;20386;-77
2022/09/08 09:23:06;;;;;;;6.05;1.80;;;20.30;99.90;;;;;;5033947;28;20083;-77
2022/09/08 09:25:39;;;;;;;6.18;2.13;;;20.50;99.90;;;;;;5032384;28;20037;-77
2022/09/08 09:28:22;;;;;;;7.28;2.72;;;20.60;99.90;;;;;;5033247;28;20516;-77
2022/09/08 09:31:07;;;;;;;4.65;2.20;;;20.60;99.90;;;;;;5027463;28;20117;-77
2022/09/08 09:33:55;;;;;;;4.68;2.20;;;20.50;99.90;;;;;;5022276;28;20511;-77
2022/09/08 09:36:42;;;;;;;9.73;2.30;;;20.20;99.90;;;;;;5034175;28;20037;-77
2022/09/08 09:39:22;;;;;;;9.73;2.58;;;20.10;99.90;;;;;;5033660;28;20104;-77
2022/09/08 09:42:05;;;;;;;5.47;1.83;;;19.90;99.90;;;;;;5031058;28;20490;-76
2022/09/08 09:44:42;;;;;;;8.70;2.10;;;19.80;99.90;;;;;;5033740;28;20112;-77
2022/09/08 09:47:37;;;;;;;7.15;2.40;;;19.90;99.90;;;;;;5033048;28;20052;-77
2022/09/08 09:50:29;;;;;;;4.35;2.28;;;20.10;99.90;;;;;;5031472;28;20034;-76
2022/09/08 09:53:16;;;;;;;10.82;2.80;;;20.20;99.90;;;;;;5033840;28;20369;-77
2022/09/08 09:56:19;;;;;;;8.80;2.60;;;20.40;99.90;;;;;;5033456;28;20036;-77
2022/09/08 09:59:18;;;;;;;6.93;2.15;;;20.50;99.90;;;;;;5033423;28;20021;-77
2022/09/08 10:01:57;;;;;;;7.78;2.50;;;20.40;99.90;;;;;;5033297;28;20030;-77
2022/09/08 10:04:45;;;;;;;11.68;3.10;;;20.40;99.90;;;;;;5019167;28;20037;-77
2022/09/08 10:07:22;;;;;;;6.50;2.80;;;20.40;99.90;;;;;;5033586;28;20029;-77
2022/09/08 10:10:16;;;;;;;5.70;1.98;;;20.50;99.90;;;;;;5033063;28;20156;-77
2022/09/08 10:13:00;;;;;;;6.43;1.95;;;20.40;99.90;;;;;;5033229;28;20557;-77
2022/09/08 10:15:57;;;;;;;6.32;2.28;;;20.30;99.90;;;;;;5032908;28;20025;-76
2022/09/08 10:18:31;;;;;;;8.77;2.20;;;20.20;99.90;;;;;;5028212;28;20056;-77
2022/09/08 10:21:08;;;;;;;13.90;2.00;;;20.20;99.90;;;;;;5031960;28;20485;-77
2022/09/08 10:24:14;;;;;;;6.53;2.00;;;20.20;99.90;;;;;;5033153;28;20029;-77
2022/09/08 10:26:51;;;;;;;10.32;2.38;;;20.20;99.90;;;;;;5024597;28;20523;-77
2022/09/08 10:29:44;;;;;;;8.35;2.60;;;20.10;99.90;;;;;;5032818;28;20057;-77
2022/09/08 10:32:16;;;;;;;11.30;2.50;;;20.00;99.90;;;;;;5023430;28;20033;-77
2022/09/08 10:34:56;;;;;;;9.55;2.70;;;19.90;99.90;;;;;;5032500;28;20045;-77
2022/09/08 10:37:40;;;;;;;12.43;2.55;;;19.80;99.90;;;;;;5031637;28;20040;-77
2022/09/08 10:40:27;;;;;;;9.25;2.08;;;20.00;99.90;;;;;;5032892;28;20028;-76
2022/09/08 10:43:14;;;;;;;8.88;2.30;;;20.20;99.90;;;;;;5032606;28;20033;-76
2022/09/08 10:46:28;;;;;;;8.57;2.20;;;20.40;99.90;;;;;;5032249;28;20090;-76
2022/09/08 10:49:12;;;;;;;8.63;2.35;;;20.60;99.90;;;;;;5027584;28;20072;-76
2022/09/08 10:51:38;;;;;;;9.32;2.70;;;20.70;99.90;;;;;;5032097;28;20057;-75
2022/09/08 10:54:14;;;;;;;10.98;2.60;;;20.70;99.90;;;;;;5032521;28;20087;-77
2022/09/08 10:56:42;;;;;;;7.45;2.70;;;20.90;99.90;;;;;;5031406;28;20048;-76
2022/09/08 10:59:27;;;;;;;9.90;2.40;;;21.00;99.90;;;;;;5032299;28;20029;-76
2022/09/08 11:02:32;;;;;;;8.15;2.22;;;21.20;99.90;;;;;;5031543;28;20029;-76
2022/09/08 11:05:31;;;;;;;6.83;2.13;;;21.30;99.90;;;;;;5011257;28;20041;-76
2022/09/08 11:08:41;;;;;;;7.25;2.35;;;21.40;99.90;;;;;;5028902;28;20500;-77
2022/09/08 11:11:21;;;;;;;8.13;2.30;;;21.30;99.90;;;;;;5031192;28;20048;-77
2022/09/08 11:14:11;;;;;;;8.43;1.88;;;21.50;99.90;;;;;;5032112;28;20072;-77
2022/09/08 11:16:46;;;;;;;11.07;2.15;;;21.70;99.90;;;;;;5020318;28;20486;-76
2022/09/08 11:19:21;;;;;;;9.85;2.15;;;21.80;99.90;;;;;;5031385;28;20045;-74
2022/09/08 11:22:02;;;;;;;10.55;2.50;;;22.00;99.90;;;;;;5031650;28;20097;-74
2022/09/08 11:24:47;;;;;;;12.15;2.58;;;22.10;99.90;;;;;;5031119;28;20033;-74
2022/09/08 11:27:39;;;;;;;11.90;2.13;;;22.30;99.90;;;;;;5038781;28;20124;-74
2022/09/08 11:30:17;;;;;;;15.07;2.70;;;22.40;99.90;;;;;;5027206;28;20120;-74
2022/09/08 11:33:15;;;;;;;10.77;2.33;;;22.50;99.90;;;;;;5037750;28;20021;-75
2022/09/08 11:36:20;;;;;;;11.18;2.40;;;22.70;99.90;;;;;;5037701;28;20405;-74
2022/09/08 11:38:57;;;;;;;8.05;2.78;;;22.80;99.90;;;;;;5022855;28;20029;-75
2022/09/08 11:41:32;;;;;;;7.70;2.20;;;22.60;99.90;;;;;;5030748;28;20017;-74
2022/09/08 11:44:29;;;;;;;11.40;2.53;;;22.60;99.90;;;;;;5031243;28;20036;-74
2022/09/08 11:47:19;;;;;;;9.30;2.30;;;22.60;99.90;;;;;;5028381;28;20541;-74
2022/09/08 11:50:04;;;;;;;9.23;2.30;;;22.50;99.90;;;;;;5032236;28;20477;-74
2022/09/08 11:52:52;;;;;;;10.55;2.72;;;22.30;99.90;;;;;;5029441;28;20032;-74
2022/09/08 11:55:55;;;;;;;8.23;2.33;;;22.30;99.90;;;;;;5024845;28;20041;-74
2022/09/08 11:58:42;;;;;;;5.03;1.70;;;22.40;99.90;;;;;;5030826;28;20504;-74
2022/09/08 12:01:32;;;;;;;8.93;1.90;;;22.30;99.90;;;;;;5031108;28;20385;-74
2022/09/08 12:04:19;;;;;;;10.52;2.63;;;22.30;99.90;;;;;;5029972;28;20040;-74
2022/09/08 12:06:57;;;;;;;9.52;1.92;;;22.20;99.90;;;;;;5030761;28;20026;-73
2022/09/08 12:09:46;;;;;;;13.27;2.20;;;22.20;99.90;;;;;;5030074;28;20033;-74
2022/09/08 12:12:21;;;;;;;9.38;2.35;;;22.40;99.90;;;;;;5025446;28;20489;-74
2022/09/08 12:14:59;;;;;;;7.82;1.98;;;22.60;99.90;;;;;;5030134;28;20032;-73
2022/09/08 12:17:30;;;;;;;9.85;1.92;;;22.70;99.90;;;;;;5030765;28;20180;-73
2022/09/08 12:20:02;;;;;;;6.97;1.90;;;22.80;99.90;;;;;;5030887;28;20021;-74
2022/09/08 12:22:47;;;;;;;6.50;2.03;;;22.90;99.90;;;;;;5031812;28;20695;-74
2022/09/08 12:25:27;;;;;;;10.40;1.97;;;23.00;99.90;;;;;;5031713;28;20516;-73
2022/09/08 12:27:56;;;;;;;11.05;2.65;;;23.00;99.90;;;;;;5037487;28;20021;-74
2022/09/08 12:30:50;;;;;;;7.15;1.98;;;23.10;99.90;;;;;;5046246;28;20028;-73
2022/09/08 12:33:22;;;;;;;8.70;2.00;;;23.00;99.20;;;;;;5043194;28;20503;-73
2022/09/08 12:35:52;;;;;;;7.13;1.73;;;22.90;99.80;;;;;;5047332;28;20259;-74
2022/09/08 12:38:49;;;;;;;11.25;1.88;;;22.80;99.90;;;;;;5041654;28;20396;-73
2022/09/08 12:41:41;;;;;;;9.18;2.17;;;22.90;99.10;;;;;;5043726;28;20033;-73
2022/09/08 12:44:44;;;;;;;7.80;1.92;;;22.90;99.10;;;;;;5031403;28;20035;-73
2022/09/08 12:47:47;;;;;;;9.30;1.67;;;23.00;98.50;;;;;;5042653;28;20152;-73
2022/09/08 12:50:19;;;;;;;9.27;1.83;;;23.10;98.40;;;;;;5040187;28;20264;-73
2022/09/08 12:53:22;;;;;;;11.75;2.15;;;23.20;98.50;;;;;;5042813;28;20017;-73
2022/09/08 12:55:53;;;;;;;11.88;2.08;;;23.20;98.30;;;;;;5045200;28;20032;-73
2022/09/08 12:58:24;;;;;;;8.45;2.20;;;23.20;98.70;;;;;;5046082;28;20017;-73
2022/09/08 13:00:57;;;;;;;10.10;2.17;;;23.10;98.40;;;;;;5040785;28;20029;-72
2022/09/08 13:03:40;;;;;;;9.00;1.63;;;22.90;98.70;;;;;;5045705;28;20032;-73
2022/09/08 13:06:13;;;;;;;11.57;2.40;;;22.90;98.90;;;;;;5047269;28;20013;-73
2022/09/08 13:08:47;;;;;;;11.43;2.00;;;22.80;99.30;;;;;;5041478;28;20055;-73
2022/09/08 13:11:31;;;;;;;6.97;2.10;;;22.80;98.90;;;;;;5042341;28;20113;-73
2022/09/08 13:14:04;;;;;;;10.05;1.85;;;22.80;98.40;;;;;;5043552;28;20267;-73
2022/09/08 13:16:43;;;;;;;9.63;1.92;;;22.90;98.40;;;;;;5041826;28;20040;-73
2022/09/08 13:19:37;;;;;;;7.82;1.92;;;22.90;98.20;;;;;;5045991;28;20087;-73
2022/09/08 13:22:31;;;;;;;8.85;2.05;;;23.00;97.50;;;;;;5041163;28;20068;-73
2022/09/08 13:25:18;;;;;;;10.65;2.05;;;23.10;97.20;;;;;;5041987;28;20118;-73